D/T METAR WX W/SPE G/SPE TEMP DEWP FEEL
31/01/23 13:20 EGYD 311320Z 29020G30KT 9999 SCT040 10/01 Q1020 NOSIG RMK BLU BLU 23.0mph 34.5mph 10°C 1°C 8.1°C
31/01/23 12:20 EGYD 311220Z 29024KT 9999 FEW035 10/02 Q1020 NOSIG RMK BLU BLU 27.6mph 10°C 2°C 8.4°C
31/01/23 06:50 EGYD 310650Z 24018KT 9999 BKN022 07/05 Q1019 TEMPO FEW022 RMK WHT TEMPO BLU 20.7mph 7°C 5°C 6.3°C
30/01/23 12:50 EGYD 301250Z 29015KT 9999 FEW030 09/03 Q1023 NOSIG RMK BLU BLU 17.3mph 9°C 3°C 7.7°C
30/01/23 11:50 EGYD 301150Z 29012KT 9999 FEW028 09/02 Q1023 NOSIG RMK BLU BLU 13.8mph 9°C 2°C 7.4°C
30/01/23 10:50 EGYD 301050Z 29017KT 9999 FEW030 08/02 Q1022 NOSIG RMK BLU BLU 19.6mph 8°C 2°C 6.4°C
30/01/23 10:20 EGYD 301020Z 29015KT 9999 FEW030 08/02 Q1022 NOSIG RMK BLU BLU 17.3mph 8°C 2°C 6.4°C
30/01/23 09:50 EGYD 300950Z 28016KT CAVOK 07/02 Q1022 NOSIG RMK BLU BLU 18.4mph 7°C 2°C 5.4°C
30/01/23 07:50 EGYD 300750Z 29017KT 9999 FEW030 06/01 Q1020 NOSIG RMK BLU BLU 19.6mph 6°C 1°C 4.1°C
30/01/23 06:50 EGYD 300650Z 28018KT 9999 FEW032 06/01 Q1019 NOSIG RMK BLU BLU 20.7mph 6°C 1°C 4.1°C
09/01/23 06:20 EGYD 090620Z AUTO 25011KT 9999 NCD 04/03 Q0991 12.7mph 4°C 3°C 2.7°C
09/01/23 05:50 EGYD 090550Z AUTO 25010KT 9999 NCD 04/03 Q0991 11.5mph 4°C 3°C 2.7°C
09/01/23 05:20 EGYD 090520Z AUTO 25013KT 9999 FEW190/// 04/03 Q0990 15.0mph 4°C 3°C 2.7°C
09/01/23 04:50 EGYD 090450Z AUTO 26011KT 9999 BKN180/// 04/03 Q0990 12.7mph 4°C 3°C 2.7°C
09/01/23 04:20 EGYD 090420Z AUTO 25011KT 9999 SCT180/// 04/03 Q0990 12.7mph 4°C 3°C 2.7°C
09/01/23 03:50 EGYD 090350Z AUTO 25013KT 9999 OVC170/// 04/03 Q0989 15.0mph 4°C 3°C 2.7°C
09/01/23 03:20 EGYD 090320Z AUTO 24013KT 9999 BKN180/// 04/03 Q0989 15.0mph 4°C 3°C 2.7°C
09/01/23 02:50 EGYD 090250Z AUTO 24013KT 9999 NCD 04/03 Q0989 15.0mph 4°C 3°C 2.7°C
09/01/23 02:20 EGYD 090220Z AUTO 24013KT 9999 NCD 03/02 Q0988 15.0mph 3°C 2°C 1.4°C
09/01/23 01:20 EGYD 090120Z AUTO 25011KT 9999 NCD 03/02 Q0988 12.7mph 3°C 2°C 1.4°C
09/01/23 00:50 EGYD 090050Z AUTO 25007KT 9999 FEW029/// 03/02 Q0987 8.1mph 3°C 2°C 1.4°C
09/01/23 00:20 EGYD 090020Z AUTO 23009KT 9999 FEW032/// 03/02 Q0987 10.4mph 3°C 2°C 1.4°C
08/01/23 23:50 EGYD 082350Z AUTO 22012KT 9999 FEW079/// 04/02 Q0987 13.8mph 4°C 2°C 2.4°C
08/01/23 23:20 EGYD 082320Z AUTO 20012KT 9999 BKN046/// 04/03 Q0987 13.8mph 4°C 3°C 2.7°C
08/01/23 22:50 EGYD 082250Z AUTO 20013KT 9999 FEW057/// 04/02 Q0986 15.0mph 4°C 2°C 2.4°C
08/01/23 22:20 EGYD 082220Z AUTO 21010KT 9999 BKN190/// 04/02 Q0987 11.5mph 4°C 2°C 2.4°C
08/01/23 21:50 EGYD 082150Z AUTO 20009KT 9999 FEW110/// BKN180/// 04/02 Q0986 10.4mph 4°C 2°C 2.4°C
08/01/23 20:20 EGYD 082020Z AUTO 18008KT 9999 NCD 04/02 Q0986 9.2mph 4°C 2°C 2.4°C
08/01/23 19:20 EGYD 081920Z AUTO 22012KT 9999 OVC160/// 05/03 Q0986 13.8mph 5°C 3°C 3.7°C
08/01/23 18:50 EGYD 081850Z AUTO 21009KT //// BKN150/// 05/04 Q0986 10.4mph 5°C 4°C 4.0°C
08/01/23 18:20 EGYD 081820Z AUTO 20006KT //// FEW027/// BKN100/// 06/04 Q0986 6.9mph 6°C 4°C 5.0°C
08/01/23 17:50 EGYD 081750Z AUTO 22009KT //// OVC100/// 06/04 Q0986 10.4mph 6°C 4°C 5.0°C
08/01/23 17:20 EGYD 081720Z AUTO 21010KT //// FEW032/// 06/04 Q0986 11.5mph 6°C 4°C 5.0°C
08/01/23 16:50 EGYD 081650Z AUTO 23009KT 9999 OVC015/// 06/04 Q0986 10.4mph 6°C 4°C 5.0°C
08/01/23 16:20 EGYD 081620Z AUTO 19012KT //// BKN021/// BKN037/// 07/05 Q0985 13.8mph 7°C 5°C 6.3°C
08/01/23 15:50 EGYD 081550Z AUTO 20014KT //// OVC024/// 08/05 Q0985 16.1mph 8°C 5°C 7.3°C
08/01/23 15:20 EGYD 081520Z AUTO 20015KT //// OVC030/// 08/05 Q0986 17.3mph 8°C 5°C 7.3°C
08/01/23 14:20 EGYD 081420Z AUTO 19018KT //// BKN039/// 08/05 Q0986 20.7mph 8°C 5°C 7.3°C
08/01/23 13:50 EGYD 081350Z AUTO 19021KT 9999 BKN023/// 08/05 Q0986 24.2mph 8°C 5°C 7.3°C
08/01/23 13:20 EGYD 081320Z AUTO 18021KT 9999 OVC021/// 09/05 Q0986 24.2mph 9°C 5°C 8.3°C
08/01/23 12:50 EGYD 081250Z AUTO 18017KT 9999 OVC018/// 09/06 Q0987 19.6mph 9°C 6°C 8.6°C
08/01/23 12:20 EGYD 081220Z AUTO 16013KT 9999 BKN020/// BKN049/// BKN098/// 07/06 Q0988 15.0mph 7°C 6°C 6.6°C
08/01/23 11:50 EGYD 081150Z AUTO 17015KT 9999 FEW013/// SCT045/// 07/05 Q0988 17.3mph 7°C 5°C 6.3°C
08/01/23 11:20 EGYD 081120Z AUTO 17014KT 9999 FEW044/// 07/05 Q0989 16.1mph 7°C 5°C 6.3°C
08/01/23 10:50 EGYD 081050Z AUTO 17013KT 9999 FEW016/// 07/05 Q0989 15.0mph 7°C 5°C 6.3°C
08/01/23 10:20 EGYD 081020Z AUTO 18015KT 9999 NCD 07/05 Q0990 17.3mph 7°C 5°C 6.3°C
08/01/23 09:50 EGYD 080950Z AUTO 19014KT 9999 NCD 07/04 Q0990 16.1mph 7°C 4°C 6.0°C
08/01/23 09:20 EGYD 080920Z AUTO 18013KT 9999 NCD 06/04 Q0990 15.0mph 6°C 4°C 5.0°C
08/01/23 08:50 EGYD 080850Z AUTO 19013KT 9999 FEW055/// 06/04 Q0991 15.0mph 6°C 4°C 5.0°C
08/01/23 08:20 EGYD 080820Z AUTO 19015KT 9999 FEW040/// BKN048/// 06/04 Q0991 17.3mph 6°C 4°C 5.0°C
08/01/23 07:50 EGYD 080750Z AUTO 19014KT 9999 FEW058/// OVC099/// 06/04 Q0991 16.1mph 6°C 4°C 5.0°C
08/01/23 07:20 EGYD 080720Z AUTO 18018KT 9999 SCT046/// 06/04 Q0991 20.7mph 6°C 4°C 5.0°C
08/01/23 06:50 EGYD 080650Z AUTO 20012KT 9999 FEW078/// BKN090/// 06/04 Q0991 13.8mph 6°C 4°C 5.0°C
08/01/23 06:20 EGYD 080620Z AUTO 20016KT 9999 FEW051/// BKN069/// 07/05 Q0991 18.4mph 7°C 5°C 6.3°C
08/01/23 05:50 EGYD 080550Z AUTO 20015KT 9999 SCT062/// 07/05 Q0991 17.3mph 7°C 5°C 6.3°C
08/01/23 05:20 EGYD 080520Z AUTO 20016KT 9999 FEW042/// 06/04 Q0991 18.4mph 6°C 4°C 5.0°C
08/01/23 04:50 EGYD 080450Z AUTO 20016KT 9999 NCD 06/04 Q0991 18.4mph 6°C 4°C 5.0°C
08/01/23 04:20 EGYD 080420Z AUTO 20017KT 9999 NCD 07/05 Q0991 19.6mph 7°C 5°C 6.3°C
08/01/23 03:50 EGYD 080350Z AUTO 19017KT 9999 SCT140/// 07/05 Q0991 19.6mph 7°C 5°C 6.3°C
08/01/23 03:20 EGYD 080320Z AUTO 20016KT 9999 FEW140/// 07/05 Q0991 18.4mph 7°C 5°C 6.3°C
08/01/23 02:50 EGYD 080250Z AUTO 20017KT 9999 SCT140/// 07/05 Q0992 19.6mph 7°C 5°C 6.3°C
08/01/23 02:20 EGYD 080220Z AUTO 20016KT 9999 BKN110/// 07/05 Q0992 18.4mph 7°C 5°C 6.3°C
08/01/23 01:50 EGYD 080150Z AUTO 19016KT 9999 FEW023/// 07/05 Q0992 18.4mph 7°C 5°C 6.3°C
08/01/23 01:20 EGYD 080120Z AUTO 19015KT 9999 FEW043/// 06/04 Q0992 17.3mph 6°C 4°C 5.0°C
08/01/23 00:20 EGYD 080020Z AUTO 20020KT 9999 FEW036/// 07/04 Q0992 23.0mph 7°C 4°C 6.0°C
07/01/23 23:50 EGYD 072350Z AUTO 20018KT 9999 NCD 07/04 Q0992 20.7mph 7°C 4°C 6.0°C
07/01/23 23:20 EGYD 072320Z AUTO 20019KT 9999 NCD 07/04 Q0992 21.9mph 7°C 4°C 6.0°C
07/01/23 22:50 EGYD 072250Z AUTO 20021KT 9999 NCD 06/04 Q0992 24.2mph 6°C 4°C 5.0°C
07/01/23 22:20 EGYD 072220Z AUTO 20018KT 9999 NCD 06/04 Q0992 20.7mph 6°C 4°C 5.0°C
07/01/23 21:50 EGYD 072150Z AUTO 20018KT 9999 NCD 06/04 Q0992 20.7mph 6°C 4°C 5.0°C
07/01/23 21:20 EGYD 072120Z AUTO 20019KT 9999 NCD 06/04 Q0992 21.9mph 6°C 4°C 5.0°C
07/01/23 20:50 EGYD 072050Z AUTO 22019KT 9999 NCD 06/04 Q0992 21.9mph 6°C 4°C 5.0°C
07/01/23 20:20 EGYD 072020Z AUTO 22019KT 9999 FEW020/// 07/05 Q0992 21.9mph 7°C 5°C 6.3°C
07/01/23 19:50 EGYD 071950Z AUTO 21019KT 9999 BKN021/// 07/05 Q0992 21.9mph 7°C 5°C 6.3°C
07/01/23 19:20 EGYD 071920Z AUTO 22020KT 9999 FEW020/// SCT093/// 07/05 Q0991 23.0mph 7°C 5°C 6.3°C
07/01/23 18:50 EGYD 071850Z AUTO 21019KT 9999 BKN024/// SCT060/// 08/06 Q0991 21.9mph 8°C 6°C 7.6°C
07/01/23 18:20 EGYD 071820Z AUTO 22023KT 9999 OVC014/// 08/06 Q0991 26.5mph 8°C 6°C 7.6°C
07/01/23 17:50 EGYD 071750Z AUTO 19018KT 9999 FEW019/// BKN040/// 09/07 Q0991 20.7mph 9°C 7°C 9.0°C
07/01/23 17:20 EGYD 071720Z AUTO 18016KT 9999 SCT053/// SCT130/// 09/07 Q0991 18.4mph 9°C 7°C 9.0°C
07/01/23 16:50 EGYD 071650Z AUTO 18013KT 9999 FEW018/// 09/08 Q0991 15.0mph 9°C 8°C 9.4°C
07/01/23 16:20 EGYD 071620Z AUTO 18012KT 9999 OVC022/// 10/08 Q0991 13.8mph 10°C 8°C 10.4°C
07/01/23 15:50 EGYD 071550Z AUTO 19014KT 9999 NCD 09/08 Q0992 16.1mph 9°C 8°C 9.4°C
07/01/23 15:20 EGYD 071520Z AUTO 20013KT 9999 FEW048/// 10/07 Q0992 15.0mph 10°C 7°C 10.0°C
07/01/23 14:50 EGYD 071450Z AUTO 19015KT 9999 OVC036/// 10/08 Q0992 17.3mph 10°C 8°C 10.4°C
07/01/23 14:20 EGYD 071420Z AUTO 19019KT 9999 OVC038/// 10/08 Q0992 21.9mph 10°C 8°C 10.4°C
07/01/23 13:50 EGYD 071350Z AUTO 20010KT 3300 OVC009/// 10/09 Q0993 11.5mph 10°C 9°C 10.8°C
07/01/23 12:50 EGYD 071250Z AUTO 19015KT 5000 OVC006/// 10/10 Q0993 17.3mph 10°C 10°C 11.3°C
07/01/23 12:20 EGYD 071220Z AUTO 18016KT 5000 OVC007/// 10/09 Q0994 18.4mph 10°C 9°C 10.8°C
07/01/23 11:50 EGYD 071150Z AUTO 17016KT 9999 OVC008/// 10/09 Q0994 18.4mph 10°C 9°C 10.8°C
07/01/23 11:20 EGYD 071120Z AUTO 17018KT 9999 OVC009/// 10/09 Q0995 20.7mph 10°C 9°C 10.8°C
07/01/23 10:50 EGYD 071050Z AUTO 17020KT 9999 OVC009/// 10/09 Q0995 23.0mph 10°C 9°C 10.8°C
07/01/23 10:20 EGYD 071020Z AUTO 17021KT 9999 OVC009/// 09/09 Q0995 24.2mph 9°C 9°C 9.8°C
07/01/23 09:50 EGYD 070950Z AUTO 17021KT 9999 OVC010/// 09/08 Q0995 24.2mph 9°C 8°C 9.4°C
07/01/23 09:20 EGYD 070920Z AUTO 17022KT 9999 OVC009/// 09/08 Q0996 25.3mph 9°C 8°C 9.4°C
07/01/23 08:50 EGYD 070850Z AUTO 17022KT 9999 OVC012/// 10/08 Q0996 25.3mph 10°C 8°C 10.4°C
07/01/23 08:20 EGYD 070820Z AUTO 17021G31KT 9999 OVC014/// 10/08 Q0996 24.2mph 35.7mph 10°C 8°C 10.4°C